Decoded Metar for KOJC (OLATHE/EXECUTIVE in KS, USA) (IATA:OJC) | Meteo·Mobile Aviation Weather
aviador You're here:

KOJC Decoded Metar

OLATHE/EXECUTIVE in KS, USA
Report Time2019-01-18 10:53:00
UTC Time2019-01-18 11:36:20
Flight Rules lifr LIFR
Wind140° at 07 kt
W.Decomp.*RWY 18: 5.0 kt HW 4.9 kt LCW
W.Rank140° ranks 10
Current wind is above 140° avg. (6.6)
Visibility6437 m
Phenomena:Mist
Clouds:Overcast 004 Hf
Ceiling400 ft
Temp00°C (ISA -13)
Dew Point00°C (100% RH)
AAT-4.5°C
QNH1016 hPa
Density Alt-515 ft
Elevation1,070 ft
Report Wrong Elevation
Raw Report
KOJC 181053Z AUTO 14007KT 4SM BR OVC004 00/00 A3001 RMK AO2 CIG
003V008 SLP172 T00000000=

Extra information for KOJC:More info

Metar Taf Metar & Taf Last 4 Metars F.Rules Stats Wind Profile Meteogram Temp Stats Airport Information Weather charts Add Link Nearby VenuesMetar ALERT Operation Metar Decoded Social comments

AIRNAV info for KOJC